Time;durP1;ratioP1;P1;durP2;ratioP2;P2;SDS_P1;SDS_P2;PMS_P1;PMS_P2;Temp;Humidity;BMP_temperature;BMP_pressure;BME280_temperature;BME280_humidity;BME280_pressure;Samples;Min_cycle;Max_cycle;Signal;HPM_P1;HPM_P2
2022/03/03 00:01:55;;;;;;;28.15;13.73;;;4.90;56.50;;;;;;9171909;19;20625;-60
2022/03/03 00:09:10;;;;;;;30.48;13.77;;;4.80;56.60;;;;;;9181928;19;20010;-88
2022/03/03 00:12:20;;;;;;;32.72;14.05;;;4.80;56.60;;;;;;9183552;19;20022;-87
2022/03/03 00:15:43;;;;;;;30.90;15.20;;;4.70;56.70;;;;;;9179304;19;20018;-87
2022/03/03 00:19:40;;;;;;;31.60;13.85;;;4.70;56.70;;;;;;9181885;19;20478;-87
2022/03/03 00:22:52;;;;;;;28.02;13.73;;;4.60;56.80;;;;;;9189125;19;20408;-87
2022/03/03 00:25:59;;;;;;;29.08;14.38;;;4.60;56.80;;;;;;9186804;19;20010;-87
2022/03/03 00:29:17;;;;;;;32.00;14.95;;;4.60;56.90;;;;;;9187154;19;20018;-86
2022/03/03 00:32:31;;;;;;;32.20;15.50;;;4.60;57.00;;;;;;9188678;19;20022;-85
2022/03/03 00:35:42;;;;;;;32.30;15.32;;;4.50;56.90;;;;;;9187916;19;20086;-86
2022/03/03 00:38:48;;;;;;;29.73;14.57;;;4.50;57.00;;;;;;9188651;19;20112;-87
2022/03/03 00:42:06;;;;;;;31.05;15.38;;;4.50;57.00;;;;;;9189446;19;20095;-87
2022/03/03 00:45:29;;;;;;;29.77;13.90;;;4.40;57.00;;;;;;9187888;19;20471;-86
2022/03/03 00:48:35;;;;;;;35.67;15.73;;;4.40;57.10;;;;;;9189571;19;20478;-86
2022/03/03 00:51:47;;;;;;;32.85;14.73;;;4.40;57.10;;;;;;9189856;19;20337;-86
2022/03/03 00:55:05;;;;;;;30.80;14.93;;;4.40;57.10;;;;;;9186253;19;20349;-87
2022/03/03 00:58:31;;;;;;;;;;;;;;;;;;;;;
2022/03/03 01:01:51;;;;;;;28.67;13.88;;;4.30;57.30;;;;;;9185185;19;20014;-87
2022/03/03 01:05:10;;;;;;;35.50;14.75;;;4.30;57.30;;;;;;9186787;19;20359;-86
2022/03/03 01:08:27;;;;;;;25.80;13.45;;;4.20;57.20;;;;;;9188762;19;20033;-87
2022/03/03 01:11:42;;;;;;;31.15;13.43;;;4.20;57.30;;;;;;9186235;19;20482;-88
2022/03/03 01:14:52;;;;;;;28.25;14.02;;;4.20;57.40;;;;;;9190182;19;20011;-87
2022/03/03 01:18:01;;;;;;;29.13;14.50;;;4.20;57.40;;;;;;9187521;19;20015;-87
2022/03/03 01:21:24;;;;;;;32.33;14.35;;;4.20;57.50;;;;;;9188118;19;20017;-86
2022/03/03 01:24:46;;;;;;;29.45;13.63;;;4.20;57.50;;;;;;9185414;19;20021;-86
2022/03/03 01:27:54;;;;;;;29.60;13.57;;;4.10;57.40;;;;;;9183158;19;20074;-86
2022/03/03 01:31:08;;;;;;;32.15;14.60;;;4.10;57.50;;;;;;9187002;19;20048;-86
2022/03/03 01:34:37;;;;;;;28.20;14.45;;;4.10;57.50;;;;;;9186008;19;20026;-88
2022/03/03 01:38:27;;;;;;;27.60;13.32;;;4.10;57.60;;;;;;9185676;19;20010;-87
2022/03/03 01:41:47;;;;;;;27.58;13.38;;;4.10;57.60;;;;;;9186551;19;20018;-87
2022/03/03 01:45:16;;;;;;;29.80;14.32;;;4.10;57.50;;;;;;9184175;19;20033;-87
2022/03/03 01:48:51;;;;;;;29.60;14.38;;;4.00;57.50;;;;;;9183920;19;20038;-87
2022/03/03 01:51:57;;;;;;;29.20;13.38;;;4.00;57.50;;;;;;9187285;19;20091;-86
2022/03/03 01:55:05;;;;;;;27.17;13.48;;;4.00;57.60;;;;;;9186405;19;20651;-87
2022/03/03 01:58:18;;;;;;;27.17;12.50;;;4.00;57.60;;;;;;9186945;19;20463;-86
2022/03/03 02:01:30;;;;;;;26.77;13.82;;;4.00;57.70;;;;;;9185619;19;20011;-86
2022/03/03 02:04:56;;;;;;;26.60;13.43;;;4.00;57.70;;;;;;9184716;19;20019;-86
2022/03/03 02:08:13;;;;;;;28.95;13.75;;;3.90;57.70;;;;;;9184326;19;20099;-86
2022/03/03 02:11:25;;;;;;;26.40;13.57;;;3.90;57.70;;;;;;9183105;19;20007;-86
2022/03/03 02:14:43;;;;;;;32.58;15.18;;;3.90;57.70;;;;;;9184296;19;20069;-88
2022/03/03 02:18:01;;;;;;;33.30;14.57;;;3.80;57.70;;;;;;9183883;19;20047;-87
2022/03/03 02:21:36;;;;;;;27.23;12.88;;;3.80;57.80;;;;;;9183372;19;20019;-86
2022/03/03 02:24:48;;;;;;;28.42;12.93;;;3.90;57.80;;;;;;9186034;19;20004;-87
2022/03/03 02:27:54;;;;;;;32.22;14.20;;;3.80;57.80;;;;;;9181479;19;20029;-87
2022/03/03 02:31:22;;;;;;;33.67;14.13;;;3.70;57.80;;;;;;9185957;19;20014;-86
2022/03/03 02:34:33;;;;;;;29.08;13.52;;;3.70;57.90;;;;;;9185977;19;20018;-87
2022/03/03 02:37:56;;;;;;;24.40;13.43;;;3.60;57.80;;;;;;9183651;19;20772;-87
2022/03/03 02:41:21;;;;;;;;;;;3.70;57.90;;;;;;9182984;19;20015;-87
2022/03/03 02:44:53;;;;;;;27.40;13.23;;;3.60;57.90;;;;;;9185709;19;20236;-86
2022/03/03 02:48:13;;;;;;;28.07;14.33;;;3.60;57.80;;;;;;9183965;19;20011;-86
2022/03/03 02:51:20;;;;;;;26.88;14.00;;;3.60;57.90;;;;;;9183678;19;20019;-87
2022/03/03 02:54:49;;;;;;;25.15;13.30;;;3.60;58.00;;;;;;9185419;19;20046;-86
2022/03/03 02:58:06;;;;;;;25.75;13.25;;;3.60;58.00;;;;;;9185470;19;20439;-86
2022/03/03 03:01:15;;;;;;;27.75;13.60;;;3.60;58.00;;;;;;9184410;19;20371;-87
2022/03/03 03:04:31;;;;;;;25.85;14.57;;;3.60;58.00;;;;;;9183655;19;20023;-87
2022/03/03 03:07:42;;;;;;;30.15;14.30;;;3.60;58.10;;;;;;9181657;19;20344;-87
2022/03/03 03:10:51;;;;;;;28.33;13.60;;;3.60;58.10;;;;;;9183856;19;20018;-86
2022/03/03 03:14:04;;;;;;;28.45;13.95;;;3.50;58.00;;;;;;9182681;19;20018;-87
2022/03/03 03:17:15;;;;;;;34.67;14.33;;;3.50;58.10;;;;;;9179887;19;20021;-86
2022/03/03 03:20:22;;;;;;;27.15;14.43;;;3.50;58.10;;;;;;9180736;19;20086;-87
2022/03/03 03:23:33;;;;;;;25.30;13.63;;;3.50;58.10;;;;;;9185231;19;20033;-87
2022/03/03 03:26:43;;;;;;;26.30;13.65;;;3.40;58.20;;;;;;9183792;19;20015;-86
2022/03/03 03:29:55;;;;;;;31.00;14.02;;;3.40;58.10;;;;;;9182787;19;20017;-86
2022/03/03 03:33:13;;;;;;;29.50;14.55;;;3.50;58.30;;;;;;9181707;19;20015;-86
2022/03/03 03:36:36;;;;;;;28.60;13.82;;;3.40;58.20;;;;;;9183688;19;20025;-86
2022/03/03 03:40:13;;;;;;;29.48;15.15;;;3.30;58.20;;;;;;9181199;19;20100;-87
2022/03/03 03:43:24;;;;;;;27.02;14.35;;;3.30;58.30;;;;;;9182200;19;20014;-88
2022/03/03 03:46:32;;;;;;;30.30;14.45;;;3.30;58.30;;;;;;9179286;19;20870;-88
2022/03/03 03:49:40;;;;;;;32.65;15.23;;;3.20;58.20;;;;;;9183317;19;20015;-88
2022/03/03 03:52:46;;;;;;;27.75;15.05;;;3.20;58.30;;;;;;9184096;19;20022;-87
2022/03/03 03:56:18;;;;;;;30.80;15.07;;;3.20;58.40;;;;;;9196242;19;20542;-87
2022/03/03 03:59:34;;;;;;;32.33;14.77;;;3.20;58.40;;;;;;9195999;19;20018;-87
2022/03/03 04:02:42;;;;;;;30.50;14.77;;;3.10;59.00;;;;;;9195139;19;20090;-87
2022/03/03 04:05:57;;;;;;;34.03;15.43;;;3.10;58.50;;;;;;9193758;19;20045;-87
2022/03/03 04:09:05;;;;;;;32.53;14.80;;;3.10;58.50;;;;;;9198057;19;20017;-88
2022/03/03 04:12:31;;;;;;;33.42;15.75;;;3.10;58.60;;;;;;9194595;19;20022;-87
2022/03/03 04:15:40;;;;;;;26.73;14.20;;;3.00;58.50;;;;;;9185730;19;20014;-87
2022/03/03 04:18:50;;;;;;;31.23;14.35;;;3.00;58.60;;;;;;9188635;19;20100;-87
2022/03/03 04:21:56;;;;;;;29.33;15.15;;;3.00;58.60;;;;;;9190134;19;20010;-87
2022/03/03 04:25:18;;;;;;;30.27;13.93;;;3.00;58.70;;;;;;9188998;19;20018;-86
2022/03/03 04:28:33;;;;;;;30.92;14.70;;;2.90;58.60;;;;;;9184879;19;20095;-87
2022/03/03 04:31:41;;;;;;;31.25;14.63;;;2.90;58.60;;;;;;9186064;19;20488;-87
2022/03/03 04:34:54;;;;;;;28.63;15.23;;;2.90;58.70;;;;;;9186517;19;20021;-87
2022/03/03 04:38:26;;;;;;;28.52;14.65;;;2.90;58.70;;;;;;9186394;19;20021;-86
2022/03/03 04:41:58;;;;;;;;;;;2.80;58.70;;;;;;9186557;19;20471;-86
2022/03/03 04:45:08;;;;;;;31.95;14.70;;;2.80;58.70;;;;;;9186288;19;19926;-87
2022/03/03 04:48:18;;;;;;;32.40;14.55;;;2.80;58.70;;;;;;9184644;19;20022;-87
2022/03/03 04:51:30;;;;;;;31.00;14.25;;;2.80;58.80;;;;;;9185862;19;20086;-86
2022/03/03 04:54:40;;;;;;;29.98;14.00;;;2.70;58.80;;;;;;9187716;19;20022;-87
2022/03/03 04:57:50;;;;;;;32.70;14.52;;;2.70;58.90;;;;;;9188101;19;20022;-87
2022/03/03 05:00:55;;;;;;;25.70;14.15;;;2.60;58.80;;;;;;9187815;19;20021;-86
2022/03/03 05:04:09;;;;;;;30.98;14.45;;;2.60;58.90;;;;;;9182817;19;20092;-86
2022/03/03 05:07:20;;;;;;;32.30;15.30;;;2.60;59.10;;;;;;9183989;19;20021;-86
2022/03/03 05:10:44;;;;;;;32.33;15.18;;;2.50;59.00;;;;;;9040909;19;2806223;-86
2022/03/03 05:13:53;;;;;;;29.38;14.00;;;2.40;59.00;;;;;;9187575;19;20007;-86
2022/03/03 05:17:11;;;;;;;31.02;14.38;;;2.40;59.20;;;;;;9188471;19;20010;-87
2022/03/03 05:20:19;;;;;;;34.42;15.20;;;2.40;59.30;;;;;;9190386;19;20025;-85
2022/03/03 05:23:25;;;;;;;32.55;15.15;;;2.30;59.30;;;;;;9189053;19;20085;-86
2022/03/03 05:26:34;;;;;;;32.75;15.57;;;2.30;59.30;;;;;;9188905;19;20019;-85
2022/03/03 05:29:39;;;;;;;35.92;16.42;;;2.30;59.40;;;;;;9183175;19;20010;-84
2022/03/03 05:33:06;;;;;;;28.52;14.20;;;2.30;59.40;;;;;;9185822;19;20017;-86
2022/03/03 05:36:19;;;;;;;31.15;16.42;;;2.30;59.50;;;;;;9184857;19;20419;-86
2022/03/03 05:39:36;;;;;;;34.85;14.70;;;2.30;59.60;;;;;;9186817;19;20365;-85
2022/03/03 05:42:45;;;;;;;31.17;15.10;;;2.30;59.60;;;;;;9185897;19;20035;-86
2022/03/03 05:45:50;;;;;;;31.42;14.63;;;2.20;59.50;;;;;;9186863;19;20022;-87
2022/03/03 05:49:02;;;;;;;29.05;14.27;;;2.20;59.60;;;;;;9184725;19;20340;-85
2022/03/03 05:52:22;;;;;;;26.85;13.88;;;2.20;60.20;;;;;;9187320;19;20485;-86
2022/03/03 05:55:32;;;;;;;32.38;14.88;;;2.30;59.80;;;;;;9188309;19;20845;-85
2022/03/03 05:58:47;;;;;;;29.75;14.57;;;2.30;59.70;;;;;;9184522;19;20014;-85
2022/03/03 06:01:56;;;;;;;35.38;15.52;;;2.30;59.80;;;;;;9186604;19;20010;-85
2022/03/03 06:05:05;;;;;;;30.20;15.88;;;2.20;59.70;;;;;;9186775;19;20531;-86
2022/03/03 06:08:29;;;;;;;40.58;16.13;;;2.20;59.70;;;;;;9184666;19;20018;-85
2022/03/03 06:11:38;;;;;;;31.30;15.53;;;2.20;59.80;;;;;;9185128;19;20014;-87
2022/03/03 06:14:54;;;;;;;28.80;14.77;;;2.20;59.70;;;;;;9185058;19;20521;-85
2022/03/03 06:18:11;;;;;;;28.73;15.55;;;2.20;59.80;;;;;;9184218;19;20471;-85
2022/03/03 06:21:17;;;;;;;33.85;15.40;;;2.20;59.80;;;;;;9186123;19;20014;-85
2022/03/03 06:24:25;;;;;;;31.55;15.20;;;2.30;59.90;;;;;;9186169;19;20457;-84
2022/03/03 06:27:33;;;;;;;32.60;17.05;;;2.20;59.90;;;;;;9180732;19;20015;-85
2022/03/03 06:30:38;;;;;;;31.38;15.60;;;2.20;59.90;;;;;;9185895;19;20018;-84
2022/03/03 06:33:44;;;;;;;34.50;15.55;;;2.20;59.90;;;;;;9185362;19;20018;-85
2022/03/03 06:36:50;;;;;;;35.53;15.45;;;2.20;60.00;;;;;;9184052;19;20089;-85
2022/03/03 06:39:58;;;;;;;29.05;15.80;;;2.20;59.90;;;;;;9181217;19;20021;-85
2022/03/03 06:43:05;;;;;;;30.67;16.02;;;2.20;60.00;;;;;;9187220;19;20015;-85
2022/03/03 06:46:10;;;;;;;37.63;15.45;;;2.20;60.00;;;;;;9185985;19;20048;-84
2022/03/03 06:49:16;;;;;;;32.13;15.50;;;2.10;60.00;;;;;;9181960;19;20018;-85
2022/03/03 06:52:27;;;;;;;33.92;16.92;;;2.20;60.10;;;;;;9185608;19;20175;-85
2022/03/03 06:55:36;;;;;;;30.98;15.63;;;2.10;60.10;;;;;;9181836;19;20098;-86
2022/03/03 06:58:42;;;;;;;34.88;17.00;;;2.10;60.10;;;;;;9180031;19;20014;-85
2022/03/03 07:01:49;;;;;;;31.05;15.43;;;2.10;60.20;;;;;;9184184;19;20021;-87
2022/03/03 07:04:55;;;;;;;37.65;16.58;;;2.10;60.20;;;;;;9183073;19;20018;-86
2022/03/03 07:08:00;;;;;;;34.40;16.55;;;2.10;60.30;;;;;;9184417;19;20019;-85
2022/03/03 07:11:10;;;;;;;35.60;17.60;;;2.10;60.30;;;;;;9180085;19;20518;-86
2022/03/03 07:14:16;;;;;;;38.75;16.40;;;2.10;60.40;;;;;;9181069;19;20022;-86
2022/03/03 07:17:34;;;;;;;30.45;16.40;;;2.10;60.40;;;;;;9177900;19;20053;-87
2022/03/03 07:20:47;;;;;;;33.55;16.67;;;2.10;60.60;;;;;;9181967;19;20018;-86
2022/03/03 07:24:02;;;;;;;37.45;18.05;;;2.10;60.70;;;;;;9180652;19;20006;-89
2022/03/03 07:27:14;;;;;;;33.90;16.98;;;2.10;60.70;;;;;;9179016;19;20376;-87
2022/03/03 07:30:19;;;;;;;37.30;16.02;;;2.20;60.80;;;;;;9180639;19;20014;-88
2022/03/03 07:33:36;;;;;;;33.47;16.60;;;2.30;60.80;;;;;;9179993;19;20006;-87
2022/03/03 07:36:43;;;;;;;36.97;18.27;;;2.30;61.00;;;;;;9177235;19;20082;-87
2022/03/03 07:39:49;;;;;;;33.35;16.77;;;2.40;61.00;;;;;;9180013;19;20045;-87
2022/03/03 07:42:57;;;;;;;38.50;17.17;;;2.50;61.10;;;;;;9179666;19;20014;-88
2022/03/03 07:46:03;;;;;;;38.30;16.77;;;2.60;61.20;;;;;;9179389;19;20967;-86
2022/03/03 07:49:09;;;;;;;38.10;17.95;;;2.70;61.20;;;;;;9182018;19;20014;-86
2022/03/03 07:52:14;;;;;;;33.13;17.23;;;2.80;61.90;;;;;;9183214;19;20037;-85
2022/03/03 07:55:19;;;;;;;32.97;16.75;;;3.00;61.40;;;;;;9183344;19;20907;-86
2022/03/03 07:58:31;;;;;;;36.13;17.55;;;3.20;61.40;;;;;;9180403;19;20078;-85
2022/03/03 08:01:38;;;;;;;36.78;15.95;;;3.30;61.50;;;;;;9182062;19;20495;-86
2022/03/03 08:04:46;;;;;;;33.13;17.40;;;3.50;61.50;;;;;;9178309;19;20014;-86
2022/03/03 08:07:52;;;;;;;44.20;17.33;;;3.70;61.50;;;;;;9180299;19;20010;-86
2022/03/03 08:11:01;;;;;;;34.35;16.08;;;3.90;61.60;;;;;;9182888;19;20106;-86
2022/03/03 08:14:09;;;;;;;33.08;16.77;;;4.10;61.60;;;;;;9181060;19;20043;-86
2022/03/03 08:17:18;;;;;;;30.98;16.10;;;4.30;61.50;;;;;;9182296;19;20086;-86
2022/03/03 08:20:24;;;;;;;34.65;16.23;;;4.50;61.50;;;;;;9179598;19;20015;-86
2022/03/03 08:23:30;;;;;;;31.48;16.55;;;4.70;61.50;;;;;;9179592;19;20026;-87
2022/03/03 08:26:36;;;;;;;28.02;15.70;;;4.90;61.40;;;;;;9179222;19;20491;-89
2022/03/03 08:29:44;;;;;;;30.67;16.65;;;5.20;61.50;;;;;;9177440;19;20003;-87
2022/03/03 08:32:59;;;;;;;32.50;17.27;;;5.40;61.40;;;;;;9177572;19;20014;-88
2022/03/03 08:36:08;;;;;;;30.50;15.40;;;5.60;61.30;;;;;;9182124;19;20757;-88
2022/03/03 08:39:21;;;;;;;29.00;15.82;;;5.90;61.30;;;;;;9182665;19;20022;-89
2022/03/03 08:42:28;;;;;;;31.25;16.52;;;6.20;61.10;;;;;;9190990;19;20018;-89
2022/03/03 08:45:37;;;;;;;28.50;16.38;;;6.30;60.90;;;;;;9188237;19;20081;-92
2022/03/03 08:48:44;;;;;;;31.83;16.85;;;6.50;60.80;;;;;;9191253;19;20010;-90
2022/03/03 08:51:49;;;;;;;28.83;15.55;;;6.70;60.70;;;;;;9187373;19;20029;-88
2022/03/03 08:54:55;;;;;;;35.63;16.40;;;6.90;60.70;;;;;;9190067;19;20007;-91
2022/03/03 08:58:00;;;;;;;30.00;16.35;;;7.10;60.60;;;;;;9191160;19;20511;-89
2022/03/03 09:01:08;;;;;;;33.20;16.88;;;7.30;60.60;;;;;;9190610;19;20546;-89
2022/03/03 09:04:14;;;;;;;30.25;16.27;;;7.50;60.40;;;;;;9189622;19;20482;-89
2022/03/03 09:07:20;;;;;;;32.45;17.13;;;7.70;60.40;;;;;;9186830;19;20018;-89
2022/03/03 09:10:26;;;;;;;30.45;17.05;;;7.80;60.20;;;;;;9186108;19;20010;-89
2022/03/03 09:13:32;;;;;;;30.35;17.02;;;7.90;60.00;;;;;;9188364;19;20077;-89
2022/03/03 09:16:40;;;;;;;32.40;15.93;;;8.10;60.00;;;;;;9185922;19;20014;-88
2022/03/03 09:19:45;;;;;;;29.67;15.35;;;8.30;59.80;;;;;;9187381;19;20029;-89
2022/03/03 09:22:50;;;;;;;24.63;13.68;;;8.40;59.70;;;;;;9187808;19;20462;-89
2022/03/03 09:25:55;;;;;;;23.42;13.38;;;8.50;59.70;;;;;;9187537;19;20015;-88
2022/03/03 09:29:00;;;;;;;28.08;13.40;;;8.60;59.60;;;;;;9182183;19;20467;-89
2022/03/03 09:32:09;;;;;;;25.73;15.02;;;8.80;59.40;;;;;;9184139;19;20048;-89
2022/03/03 09:35:15;;;;;;;26.85;14.10;;;8.90;59.30;;;;;;9186297;19;20018;-89
2022/03/03 09:38:20;;;;;;;29.45;13.93;;;9.00;59.20;;;;;;9186801;19;20019;-88
2022/03/03 09:41:25;;;;;;;23.75;13.57;;;9.20;59.10;;;;;;9186491;19;20018;-90
2022/03/03 09:44:31;;;;;;;22.35;12.80;;;9.30;59.00;;;;;;9187274;19;20014;-91
2022/03/03 09:47:40;;;;;;;25.40;13.50;;;9.40;58.90;;;;;;9186730;19;20014;-91
2022/03/03 09:50:45;;;;;;;23.27;13.65;;;9.50;58.80;;;;;;9177708;19;20019;-87
2022/03/03 09:53:51;;;;;;;25.23;12.85;;;9.60;58.70;;;;;;9185697;19;20459;-89
2022/03/03 09:56:56;;;;;;;19.83;12.57;;;9.80;58.70;;;;;;9184210;19;20015;-89
2022/03/03 10:00:03;;;;;;;23.10;12.23;;;9.90;58.60;;;;;;9186965;19;20015;-89
2022/03/03 10:03:19;;;;;;;27.50;11.50;;;10.00;58.50;;;;;;9187479;19;20386;-89
2022/03/03 10:06:25;;;;;;;18.30;12.05;;;10.20;58.30;;;;;;9190106;19;20337;-89
2022/03/03 10:09:31;;;;;;;22.60;12.20;;;10.20;58.20;;;;;;9194365;19;20014;-90
2022/03/03 10:12:45;;;;;;;22.35;11.82;;;10.40;58.20;;;;;;9195963;19;20006;-90
2022/03/03 10:15:55;;;;;;;18.98;12.10;;;10.40;57.90;;;;;;9191589;19;20086;-89
2022/03/03 10:19:06;;;;;;;22.40;12.30;;;10.60;58.00;;;;;;9188431;19;20407;-90
2022/03/03 10:22:11;;;;;;;25.85;12.85;;;10.60;57.70;;;;;;9187611;19;20010;-88
2022/03/03 10:25:29;;;;;;;19.63;11.80;;;10.80;57.80;;;;;;9186637;19;20007;-89
2022/03/03 10:28:36;;;;;;;24.08;12.27;;;11.00;57.70;;;;;;9183443;19;20018;-88
2022/03/03 10:31:48;;;;;;;23.63;11.02;;;11.00;57.60;;;;;;9184885;19;20018;-88
2022/03/03 10:34:56;;;;;;;21.20;11.52;;;11.10;57.40;;;;;;9184939;19;20048;-91
2022/03/03 10:38:06;;;;;;;19.40;11.02;;;11.30;57.30;;;;;;9183897;19;20518;-91
2022/03/03 10:41:30;;;;;;;17.98;11.07;;;11.30;56.90;;;;;;9183553;19;20015;-93
2022/03/03 10:44:39;;;;;;;20.60;11.73;;;11.50;56.70;;;;;;9186299;19;20022;-93
2022/03/03 10:48:03;;;;;;;22.90;11.77;;;11.60;56.80;;;;;;9183831;19;20078;-89
2022/03/03 10:51:16;;;;;;;19.95;11.27;;;11.60;56.50;;;;;;9183851;19;20037;-91
2022/03/03 10:54:26;;;;;;;19.45;11.43;;;11.70;56.50;;;;;;9185801;19;20017;-90
2022/03/03 10:57:49;;;;;;;18.77;11.43;;;11.70;56.50;;;;;;9184110;19;20025;-92
2022/03/03 11:00:57;;;;;;;18.63;10.63;;;11.80;56.80;;;;;;9184369;19;20019;-91
2022/03/03 11:04:02;;;;;;;20.15;11.50;;;11.90;56.30;;;;;;9182250;19;20035;-89
2022/03/03 11:07:14;;;;;;;24.48;11.25;;;11.90;56.20;;;;;;9181795;19;20044;-90
2022/03/03 11:10:24;;;;;;;27.13;11.68;;;12.10;56.10;;;;;;9182007;19;20025;-94
2022/03/03 11:13:30;;;;;;;18.77;10.68;;;12.10;55.90;;;;;;9181625;19;20018;-92
2022/03/03 11:16:49;;;;;;;20.33;10.02;;;12.20;55.80;;;;;;9182062;19;20011;-93
2022/03/03 11:20:01;;;;;;;16.35;10.45;;;12.30;55.60;;;;;;9183946;19;20111;-92
2022/03/03 11:23:13;;;;;;;16.35;10.70;;;12.40;55.60;;;;;;9184093;19;20490;-91
2022/03/03 11:26:25;;;;;;;20.83;11.30;;;12.50;55.20;;;;;;9184305;19;20011;-92
2022/03/03 11:29:38;;;;;;;16.08;10.77;;;12.60;55.10;;;;;;9180971;19;20018;-90
2022/03/03 11:32:43;;;;;;;18.20;10.63;;;12.60;55.10;;;;;;9181278;19;20015;-90
2022/03/03 11:35:52;;;;;;;15.10;9.85;;;12.70;55.10;;;;;;9181370;19;20014;-90
2022/03/03 11:39:10;;;;;;;16.95;10.13;;;12.80;54.80;;;;;;9182178;19;20042;-92
2022/03/03 11:42:24;;;;;;;21.60;9.32;;;12.80;54.50;;;;;;9180162;19;20006;-91
2022/03/03 11:45:51;;;;;;;19.17;11.15;;;12.90;54.50;;;;;;9178840;19;20819;-92
2022/03/03 11:49:11;;;;;;;20.33;10.77;;;13.00;54.30;;;;;;9182609;19;20010;-92
2022/03/03 11:52:23;;;;;;;19.77;10.82;;;13.10;54.30;;;;;;9178808;19;20018;-88
2022/03/03 11:55:40;;;;;;;21.48;11.52;;;13.10;54.20;;;;;;9180380;19;20474;-90
2022/03/03 11:58:46;;;;;;;20.52;11.10;;;13.30;54.20;;;;;;9182032;19;20022;-91
2022/03/03 12:02:03;;;;;;;17.50;10.98;;;13.30;54.20;;;;;;9181728;19;20502;-91
2022/03/03 12:05:46;;;;;;;18.63;11.13;;;13.30;53.70;;;;;;9179821;19;20015;-91
2022/03/03 12:09:19;;;;;;;27.27;11.65;;;13.40;53.60;;;;;;9181222;19;20507;-91
2022/03/03 12:12:41;;;;;;;19.67;11.23;;;13.40;53.90;;;;;;9179608;19;20018;-91
2022/03/03 12:16:21;;;;;;;19.17;10.90;;;13.40;53.60;;;;;;9187231;19;20019;-91
2022/03/03 12:19:38;;;;;;;17.30;10.43;;;13.50;54.10;;;;;;9188413;19;20025;-89
2022/03/03 12:23:02;;;;;;;16.23;10.63;;;13.60;53.60;;;;;;9190453;19;20015;-90
2022/03/03 12:26:08;;;;;;;19.95;11.25;;;13.60;53.30;;;;;;9191641;19;20028;-89
2022/03/03 12:29:35;;;;;;;17.42;9.85;;;13.70;53.60;;;;;;9187737;19;20018;-88
2022/03/03 12:32:42;;;;;;;16.13;9.52;;;13.70;53.00;;;;;;9187134;19;20007;-90
2022/03/03 12:35:49;;;;;;;17.05;10.07;;;13.70;53.20;;;;;;9190685;19;20010;-88
2022/03/03 12:38:55;;;;;;;18.27;10.05;;;13.70;53.10;;;;;;9189918;19;20006;-87
2022/03/03 12:42:01;;;;;;;15.70;9.80;;;13.70;53.00;;;;;;9186247;19;20018;-86
2022/03/03 12:45:14;;;;;;;16.90;9.55;;;13.70;53.10;;;;;;9187827;19;20094;-88
2022/03/03 12:48:30;;;;;;;17.50;9.03;;;13.70;52.80;;;;;;9187999;19;20360;-89
2022/03/03 12:51:44;;;;;;;14.85;9.45;;;13.70;52.70;;;;;;9187936;19;20011;-88
2022/03/03 12:54:54;;;;;;;16.08;9.13;;;13.70;52.80;;;;;;9187910;19;20022;-87
2022/03/03 12:58:00;;;;;;;19.17;9.98;;;13.70;52.70;;;;;;9190223;19;20038;-89
2022/03/03 13:01:08;;;;;;;15.80;8.93;;;13.70;52.70;;;;;;9190249;19;20090;-88
2022/03/03 13:04:20;;;;;;;15.18;10.00;;;13.70;52.60;;;;;;9189117;19;20013;-86
2022/03/03 13:07:41;;;;;;;18.42;10.38;;;13.70;52.60;;;;;;9186148;19;20335;-86
2022/03/03 13:10:46;;;;;;;16.48;9.90;;;13.70;52.20;;;;;;9186230;19;20002;-86
2022/03/03 13:13:57;;;;;;;18.23;10.40;;;13.70;52.50;;;;;;9186102;19;20082;-88
2022/03/03 13:17:12;;;;;;;15.27;9.55;;;13.60;52.50;;;;;;9190049;19;20023;-88
2022/03/03 13:20:17;;;;;;;;;;;13.60;52.30;;;;;;9187725;19;20021;-88
2022/03/03 13:23:23;;;;;;;20.98;9.98;;;13.60;52.80;;;;;;9188225;19;19918;-87
2022/03/03 13:26:45;;;;;;;17.50;9.80;;;13.40;52.60;;;;;;9188666;19;20470;-89
2022/03/03 13:29:52;;;;;;;18.40;10.10;;;13.30;52.60;;;;;;9186647;19;20017;-88
2022/03/03 13:33:04;;;;;;;21.15;9.65;;;13.20;52.50;;;;;;9185607;19;20070;-89
2022/03/03 13:36:20;;;;;;;18.20;10.27;;;13.10;52.50;;;;;;9185341;19;20415;-87
2022/03/03 13:39:30;;;;;;;18.38;9.95;;;13.00;52.60;;;;;;9187701;19;20015;-87
2022/03/03 13:42:41;;;;;;;15.02;9.82;;;12.90;52.50;;;;;;9186234;19;20010;-87
2022/03/03 13:45:48;;;;;;;18.30;10.07;;;12.80;52.50;;;;;;9186473;19;20015;-88
2022/03/03 13:48:57;;;;;;;15.43;9.65;;;12.80;52.60;;;;;;9188019;19;20040;-87
2022/03/03 13:52:08;;;;;;;25.10;9.77;;;12.70;52.50;;;;;;9186497;19;20011;-87
2022/03/03 13:55:19;;;;;;;18.02;10.00;;;12.70;52.70;;;;;;9188242;19;20022;-87
2022/03/03 13:58:28;;;;;;;17.20;10.18;;;12.60;52.50;;;;;;9184883;19;20074;-88
2022/03/03 14:01:36;;;;;;;18.73;9.75;;;12.50;52.50;;;;;;9186813;19;20270;-88
2022/03/03 14:04:59;;;;;;;18.77;9.07;;;12.40;52.60;;;;;;9185061;19;20014;-88
2022/03/03 14:08:05;;;;;;;13.95;8.98;;;12.30;52.50;;;;;;9184463;19;20014;-88
2022/03/03 14:11:13;;;;;;;23.05;12.18;;;12.30;52.80;;;;;;9182811;19;20025;-88
2022/03/03 14:14:22;;;;;;;18.15;10.27;;;12.20;52.70;;;;;;9185263;19;20014;-87
2022/03/03 14:17:28;;;;;;;19.08;10.48;;;12.20;52.70;;;;;;9185607;19;20018;-87
2022/03/03 14:20:36;;;;;;;18.63;10.35;;;12.20;53.30;;;;;;9186441;19;20352;-86
2022/03/03 14:23:42;;;;;;;19.52;10.20;;;12.10;52.60;;;;;;9181873;19;20033;-84
2022/03/03 14:26:47;;;;;;;17.38;10.40;;;12.10;52.70;;;;;;9183387;19;20359;-87
2022/03/03 14:29:52;;;;;;;18.05;10.82;;;12.00;52.60;;;;;;9180585;19;20118;-86
2022/03/03 14:32:58;;;;;;;19.75;10.05;;;12.00;52.60;;;;;;9176175;19;20018;-88
2022/03/03 14:36:07;;;;;;;17.75;9.60;;;12.00;52.70;;;;;;9184987;19;20455;-89
2022/03/03 14:39:13;;;;;;;16.02;9.07;;;12.00;52.60;;;;;;9182586;19;20014;-88
2022/03/03 14:42:18;;;;;;;18.58;10.07;;;12.00;52.60;;;;;;9184598;19;20010;-86
2022/03/03 14:45:23;;;;;;;17.90;9.80;;;12.00;52.50;;;;;;9183823;19;20026;-87
2022/03/03 14:48:30;;;;;;;16.83;10.32;;;12.00;52.60;;;;;;9183019;19;20478;-87
2022/03/03 14:51:38;;;;;;;15.55;9.90;;;12.00;52.40;;;;;;9183841;19;20336;-87
2022/03/03 14:54:44;;;;;;;16.20;9.90;;;12.00;52.40;;;;;;9183583;19;20467;-86
2022/03/03 14:57:49;;;;;;;18.85;10.57;;;12.00;52.40;;;;;;9184053;19;20048;-86
2022/03/03 15:00:56;;;;;;;18.02;10.95;;;12.00;52.50;;;;;;9185292;19;20017;-89
2022/03/03 15:04:04;;;;;;;18.42;10.90;;;12.00;52.40;;;;;;9184425;19;20475;-88
2022/03/03 15:07:12;;;;;;;21.13;10.27;;;12.00;52.40;;;;;;9183427;19;20025;-87
2022/03/03 15:10:18;;;;;;;18.33;9.65;;;12.00;52.30;;;;;;9181855;19;20025;-88
2022/03/03 15:13:24;;;;;;;15.77;10.15;;;11.90;52.30;;;;;;9181707;19;20011;-89
2022/03/03 15:16:30;;;;;;;15.52;9.85;;;11.90;52.30;;;;;;9182557;19;20006;-88
2022/03/03 15:19:37;;;;;;;15.80;9.25;;;12.00;52.30;;;;;;9185368;19;20384;-87
2022/03/03 15:22:45;;;;;;;18.25;10.65;;;11.90;52.20;;;;;;9184169;19;20014;-89
2022/03/03 15:25:50;;;;;;;17.17;9.57;;;11.90;52.20;;;;;;9183577;19;20010;-88
2022/03/03 15:28:55;;;;;;;15.35;9.23;;;11.90;52.30;;;;;;9179722;19;20351;-88
2022/03/03 15:32:02;;;;;;;16.65;9.63;;;11.90;52.30;;;;;;9182234;19;20019;-88
2022/03/03 15:38:28;;;;;;;15.43;9.32;;;11.90;52.20;;;;;;9180410;19;20029;-87
2022/03/03 15:41:34;;;;;;;14.20;8.73;;;11.80;52.10;;;;;;9181795;19;20028;-88
2022/03/03 15:44:40;;;;;;;14.82;9.32;;;11.80;52.20;;;;;;9183119;19;21720;-87
2022/03/03 15:47:45;;;;;;;15.57;8.70;;;11.80;52.20;;;;;;9184032;19;20031;-88
2022/03/03 15:50:54;;;;;;;20.00;10.02;;;11.80;52.10;;;;;;9187580;19;20018;-87
2022/03/03 15:54:02;;;;;;;15.75;9.95;;;11.70;52.10;;;;;;9189483;19;20044;-87
2022/03/03 15:57:09;;;;;;;16.33;8.90;;;11.80;52.00;;;;;;9189578;19;20022;-88
2022/03/03 16:00:16;;;;;;;16.58;9.85;;;11.70;52.00;;;;;;9189214;19;20019;-87
2022/03/03 16:03:49;;;;;;;16.90;9.30;;;11.70;52.00;;;;;;9192329;19;20053;-87
2022/03/03 16:06:56;;;;;;;15.63;9.07;;;11.60;51.80;;;;;;9189496;19;20002;-87
2022/03/03 16:10:05;;;;;;;19.70;9.52;;;11.60;52.10;;;;;;9191203;19;20018;-87
2022/03/03 16:13:13;;;;;;;17.42;8.43;;;11.50;52.00;;;;;;9189442;19;20052;-87
2022/03/03 16:16:18;;;;;;;16.05;8.05;;;11.50;52.10;;;;;;9187321;19;20360;-87
2022/03/03 16:19:24;;;;;;;18.05;9.15;;;11.40;52.10;;;;;;9193087;19;20523;-86
2022/03/03 16:22:35;;;;;;;16.52;8.98;;;11.40;52.10;;;;;;9192412;19;20499;-87
2022/03/03 16:29:39;;;;;;;19.10;9.20;;;11.30;52.00;;;;;;9185761;19;20014;-87
2022/03/03 16:32:47;;;;;;;15.65;8.43;;;11.20;52.10;;;;;;9190136;19;20025;-87
2022/03/03 16:35:53;;;;;;;25.95;11.65;;;11.20;52.10;;;;;;9194994;19;20031;-88